Briefing drone pour Arc-sur-tille

Rechercher une autre localisation

Conditions de vol :


Nous sommes le : Dimanche 16 mai 2021
Il est 18:51 UTC (20:51 LT)

Lever de soleil : 03:34 UTC (05:34 LT)
Coucher de soleil : 19:36 UTC (21:36 LT)

Météo

L'essentiel des conditions de vol

VIGILANCE MÉTÉO FRANCE - Côte-dOr (21)
Vigilance Jaune : Orages
METAR de LFSD
LFSD 161830Z AUTO 25006KT 220V290 9999 BKN048/// BKN060/// BKN074/// ///TCU 15/08 Q1005

Date d'émission: 16/05/2021
Heure d'émission: 18:30 UTC
Vent: 250° (variable du 220° au 290°) pour 6 KT (11 km/h)
Visibilité horizontale: > 10 km
Plafond :
- Nuages morcelés à 4800ft (1463m)
- Nuages morcelés à 6000ft (1829m)
- Nuages morcelés à 7400ft (2256m)
Température: 15 °C
Point de rosée: 8 °C
Humidité: 63%
Pression (QNH): 1005 hPa
TAF de LFSD
LFSD 010600Z 0100/0124 CNL

Conditions prévues :

Heure d'émission : Bulletin éffectué le 01 à 00:00 UTC
Prévision : Valide du 01 a 00:00 UTC au 01 a 23:59 UTC
Nuages : à 0ft (0 m)
WEBCAM POUR ARC-SUR-TILLE

Réglementation

Voler en sécurité

CARTES AERONAUTIQUE 1/500.000
CARTES VAC (LFSD)
SUP AIP




Chargement des AIP...
NOTAM (ARC-SUR-TILLE + Terrain à proximité / FIR )




Chargement des NOTAMS...
CONTACT PREFECTURE 21
Côte-dOr (21) : pref-drone@cote-dor.gouv.fr


Avertissement : Les données mises à disposition sont indicatives. Oxygène Drone ne pourra être tenu responsable de dégâts causés aux biens et aux personnes.